Athabasca, Canada
Current Conditions -  °F | °C
As of 2:09 AM on Wednesday 22 Oct 2014 (Local Time) from CYZH Reporting Station
Haze Haze  
Wind Chill: 34°   Ceiling: Unl
Heat Index: 37°   Visibility: 1.2mi
Dew Point: 36°   Wind: 5mph
Humidity: 93%   Direction: 130°SE
Pressure: 29.65"   Gusts: NA
Location:  54.72°N, 113.27°W
Report Text: CYZH 220809Z AUTO 13004KT 080V140 1 1/4SM BR CLR 03/02 A2965 RMK SLP055
Loading
Personal Weather Stations






























Interactive Weather Map
Tropical Storm Tracking
New forecast layout! Learn more

10-Day Weather Forecast

Advertisements
Track Severe Weather on mobile